sensor_id;sensor_type;location;lat;lon;timestamp;pressure;altitude;pressure_sealevel;temperature;humidity
49915;BME280;35806;47.958;13.158;2023-02-28T00:00:37;95091.28;;;-4.95;57.17
49915;BME280;35806;47.958;13.158;2023-02-28T00:03:05;95086.90;;;-5.81;59.03
49915;BME280;35806;47.958;13.158;2023-02-28T00:05:33;95085.32;;;-5.93;60.40
49915;BME280;35806;47.958;13.158;2023-02-28T00:08:01;95086.35;;;-5.47;58.52
49915;BME280;35806;47.958;13.158;2023-02-28T00:10:30;95092.03;;;-5.45;59.01
49915;BME280;35806;47.958;13.158;2023-02-28T00:13:01;95095.60;;;-5.80;60.25
49915;BME280;35806;47.958;13.158;2023-02-28T00:15:29;95092.06;;;-6.07;61.24
49915;BME280;35806;47.958;13.158;2023-02-28T00:17:57;95088.31;;;-6.00;61.36
49915;BME280;35806;47.958;13.158;2023-02-28T00:20:24;95087.08;;;-5.64;59.52
49915;BME280;35806;47.958;13.158;2023-02-28T00:22:53;95084.07;;;-5.40;59.92
49915;BME280;35806;47.958;13.158;2023-02-28T00:25:23;95081.84;;;-5.65;60.79
49915;BME280;35806;47.958;13.158;2023-02-28T00:27:51;95083.19;;;-5.37;59.49
49915;BME280;35806;47.958;13.158;2023-02-28T00:30:21;95077.06;;;-6.23;60.85
49915;BME280;35806;47.958;13.158;2023-02-28T00:32:49;95078.95;;;-6.18;61.30
49915;BME280;35806;47.958;13.158;2023-02-28T00:35:17;95080.80;;;-5.37;59.38
49915;BME280;35806;47.958;13.158;2023-02-28T00:37:45;95076.54;;;-5.46;59.95
49915;BME280;35806;47.958;13.158;2023-02-28T00:40:12;95076.12;;;-5.79;61.56
49915;BME280;35806;47.958;13.158;2023-02-28T00:42:39;95070.54;;;-5.91;61.14
49915;BME280;35806;47.958;13.158;2023-02-28T00:45:07;95068.22;;;-5.03;59.22
49915;BME280;35806;47.958;13.158;2023-02-28T00:47:34;95069.02;;;-5.78;61.08
49915;BME280;35806;47.958;13.158;2023-02-28T00:50:02;95068.25;;;-5.53;61.24
49915;BME280;35806;47.958;13.158;2023-02-28T00:52:30;95063.22;;;-6.18;61.69
49915;BME280;35806;47.958;13.158;2023-02-28T00:54:57;95065.85;;;-5.31;59.79
49915;BME280;35806;47.958;13.158;2023-02-28T00:57:25;95061.38;;;-6.24;61.83
49915;BME280;35806;47.958;13.158;2023-02-28T00:59:52;95065.19;;;-5.69;61.53
49915;BME280;35806;47.958;13.158;2023-02-28T01:02:19;95062.96;;;-5.88;62.00
49915;BME280;35806;47.958;13.158;2023-02-28T01:04:47;95066.50;;;-5.87;61.74
49915;BME280;35806;47.958;13.158;2023-02-28T01:07:14;95066.20;;;-5.86;61.63
49915;BME280;35806;47.958;13.158;2023-02-28T01:09:41;95061.27;;;-5.90;61.96
49915;BME280;35806;47.958;13.158;2023-02-28T01:12:09;95062.69;;;-5.54;60.90
49915;BME280;35806;47.958;13.158;2023-02-28T01:14:36;95060.81;;;-5.99;62.51
49915;BME280;35806;47.958;13.158;2023-02-28T01:17:03;95062.30;;;-6.12;63.14
49915;BME280;35806;47.958;13.158;2023-02-28T01:19:30;95060.86;;;-6.01;63.02
49915;BME280;35806;47.958;13.158;2023-02-28T01:22:01;95056.99;;;-5.83;62.44
49915;BME280;35806;47.958;13.158;2023-02-28T01:24:28;95057.93;;;-6.07;63.14
49915;BME280;35806;47.958;13.158;2023-02-28T01:26:56;95060.15;;;-6.24;63.46
49915;BME280;35806;47.958;13.158;2023-02-28T01:29:22;95057.12;;;-6.09;62.64
49915;BME280;35806;47.958;13.158;2023-02-28T01:31:50;95054.73;;;-5.74;62.17
49915;BME280;35806;47.958;13.158;2023-02-28T01:34:16;95058.03;;;-5.25;60.68
49915;BME280;35806;47.958;13.158;2023-02-28T01:36:44;95055.45;;;-5.57;61.88
49915;BME280;35806;47.958;13.158;2023-02-28T01:39:11;95051.17;;;-5.32;61.20
49915;BME280;35806;47.958;13.158;2023-02-28T01:41:39;95053.26;;;-5.72;62.02
49915;BME280;35806;47.958;13.158;2023-02-28T01:44:54;95053.06;;;-6.04;62.43
49915;BME280;35806;47.958;13.158;2023-02-28T01:47:23;95058.65;;;-6.66;64.12
49915;BME280;35806;47.958;13.158;2023-02-28T01:49:51;95050.90;;;-5.61;62.17
49915;BME280;35806;47.958;13.158;2023-02-28T01:52:25;95050.46;;;-5.77;62.52
49915;BME280;35806;47.958;13.158;2023-02-28T01:54:55;95051.66;;;-5.84;62.30
49915;BME280;35806;47.958;13.158;2023-02-28T01:57:27;95047.12;;;-5.77;61.85
49915;BME280;35806;47.958;13.158;2023-02-28T01:59:58;95047.41;;;-5.74;62.15
49915;BME280;35806;47.958;13.158;2023-02-28T02:15:33;95033.18;;;-5.81;60.52
49915;BME280;35806;47.958;13.158;2023-02-28T02:18:16;95031.40;;;-5.79;61.99
49915;BME280;35806;47.958;13.158;2023-02-28T02:21:08;95031.78;;;-5.53;61.58
49915;BME280;35806;47.958;13.158;2023-02-28T02:23:55;95033.41;;;-5.33;61.77
49915;BME280;35806;47.958;13.158;2023-02-28T02:26:51;95029.64;;;-6.10;63.38
49915;BME280;35806;47.958;13.158;2023-02-28T02:29:39;95029.27;;;-6.14;64.23
49915;BME280;35806;47.958;13.158;2023-02-28T02:32:25;95029.11;;;-6.10;63.06
49915;BME280;35806;47.958;13.158;2023-02-28T02:35:04;95027.63;;;-6.15;63.91
49915;BME280;35806;47.958;13.158;2023-02-28T02:37:38;95026.49;;;-6.27;64.73
49915;BME280;35806;47.958;13.158;2023-02-28T02:40:12;95022.60;;;-5.85;63.61
49915;BME280;35806;47.958;13.158;2023-02-28T02:42:45;95022.98;;;-5.91;62.97
49915;BME280;35806;47.958;13.158;2023-02-28T02:45:18;95022.39;;;-6.21;63.60
49915;BME280;35806;47.958;13.158;2023-02-28T02:47:46;95023.35;;;-5.66;62.86
49915;BME280;35806;47.958;13.158;2023-02-28T02:50:18;95021.08;;;-5.73;62.46
49915;BME280;35806;47.958;13.158;2023-02-28T02:52:51;95027.60;;;-5.15;61.08
49915;BME280;35806;47.958;13.158;2023-02-28T02:55:20;95022.60;;;-5.32;61.96
49915;BME280;35806;47.958;13.158;2023-02-28T02:57:53;95019.12;;;-5.29;61.86
49915;BME280;35806;47.958;13.158;2023-02-28T03:00:24;95022.78;;;-5.66;61.63
49915;BME280;35806;47.958;13.158;2023-02-28T03:02:54;95023.59;;;-4.74;61.08
49915;BME280;35806;47.958;13.158;2023-02-28T03:05:26;95022.90;;;-4.97;60.30
49915;BME280;35806;47.958;13.158;2023-02-28T03:07:54;95023.02;;;-5.11;59.96
49915;BME280;35806;47.958;13.158;2023-02-28T03:10:33;95026.68;;;-5.52;61.10
49915;BME280;35806;47.958;13.158;2023-02-28T03:13:12;95030.73;;;-5.18;61.48
49915;BME280;35806;47.958;13.158;2023-02-28T03:15:55;95031.37;;;-5.00;61.07
49915;BME280;35806;47.958;13.158;2023-02-28T03:18:30;95031.73;;;-5.17;60.87
49915;BME280;35806;47.958;13.158;2023-02-28T03:21:03;95034.34;;;-5.28;60.79
49915;BME280;35806;47.958;13.158;2023-02-28T03:23:39;95032.76;;;-5.72;61.51
49915;BME280;35806;47.958;13.158;2023-02-28T03:26:13;95030.07;;;-5.17;61.17
49915;BME280;35806;47.958;13.158;2023-02-28T03:28:50;95032.18;;;-5.07;61.50
49915;BME280;35806;47.958;13.158;2023-02-28T03:31:25;95028.44;;;-4.61;59.35
49915;BME280;35806;47.958;13.158;2023-02-28T03:34:00;95029.68;;;-4.58;60.42
49915;BME280;35806;47.958;13.158;2023-02-28T03:36:30;95032.40;;;-4.76;59.92
49915;BME280;35806;47.958;13.158;2023-02-28T03:39:03;95034.78;;;-5.35;61.04
49915;BME280;35806;47.958;13.158;2023-02-28T03:41:35;95038.43;;;-5.46;61.39
49915;BME280;35806;47.958;13.158;2023-02-28T03:44:07;95035.12;;;-4.62;59.65
49915;BME280;35806;47.958;13.158;2023-02-28T03:46:39;95036.82;;;-4.87;59.85
49915;BME280;35806;47.958;13.158;2023-02-28T03:49:14;95035.51;;;-5.40;61.08
49915;BME280;35806;47.958;13.158;2023-02-28T03:51:45;95033.82;;;-4.93;61.31
49915;BME280;35806;47.958;13.158;2023-02-28T03:54:15;95035.38;;;-5.00;61.04
49915;BME280;35806;47.958;13.158;2023-02-28T03:56:48;95039.49;;;-5.43;61.66
49915;BME280;35806;47.958;13.158;2023-02-28T03:59:22;95035.20;;;-5.12;61.47
49915;BME280;35806;47.958;13.158;2023-02-28T04:01:53;95035.08;;;-5.11;60.99
49915;BME280;35806;47.958;13.158;2023-02-28T04:04:21;95038.40;;;-4.75;60.75
49915;BME280;35806;47.958;13.158;2023-02-28T04:06:50;95041.80;;;-4.93;60.56
49915;BME280;35806;47.958;13.158;2023-02-28T04:09:19;95041.46;;;-3.98;58.99
49915;BME280;35806;47.958;13.158;2023-02-28T04:11:50;95037.93;;;-4.24;59.10
49915;BME280;35806;47.958;13.158;2023-02-28T04:14:18;95040.38;;;-4.13;58.81
49915;BME280;35806;47.958;13.158;2023-02-28T04:16:46;95043.22;;;-4.53;59.59
49915;BME280;35806;47.958;13.158;2023-02-28T04:19:14;95045.20;;;-4.48;59.52
49915;BME280;35806;47.958;13.158;2023-02-28T04:21:43;95045.02;;;-5.10;60.99
49915;BME280;35806;47.958;13.158;2023-02-28T04:24:12;95044.53;;;-5.31;61.32
49915;BME280;35806;47.958;13.158;2023-02-28T04:26:41;95044.55;;;-4.82;60.99
49915;BME280;35806;47.958;13.158;2023-02-28T04:29:11;95043.14;;;-5.07;60.56
49915;BME280;35806;47.958;13.158;2023-02-28T04:31:39;95038.83;;;-4.99;60.53
49915;BME280;35806;47.958;13.158;2023-02-28T04:34:07;95038.10;;;-5.39;61.59
49915;BME280;35806;47.958;13.158;2023-02-28T04:36:34;95038.74;;;-4.56;60.30
49915;BME280;35806;47.958;13.158;2023-02-28T04:39:02;95039.84;;;-5.16;61.50
49915;BME280;35806;47.958;13.158;2023-02-28T04:41:29;95036.47;;;-4.78;60.12
49915;BME280;35806;47.958;13.158;2023-02-28T04:43:56;95035.72;;;-4.42;59.71
49915;BME280;35806;47.958;13.158;2023-02-28T04:46:24;95039.01;;;-4.94;60.29
49915;BME280;35806;47.958;13.158;2023-02-28T04:48:56;95039.35;;;-4.88;60.92
49915;BME280;35806;47.958;13.158;2023-02-28T04:51:24;95037.29;;;-4.41;60.12
49915;BME280;35806;47.958;13.158;2023-02-28T04:53:52;95042.18;;;-4.97;60.43
49915;BME280;35806;47.958;13.158;2023-02-28T04:56:20;95038.64;;;-4.84;61.07
49915;BME280;35806;47.958;13.158;2023-02-28T04:58:47;95044.49;;;-4.72;60.70
49915;BME280;35806;47.958;13.158;2023-02-28T05:01:19;95038.64;;;-4.32;59.99
49915;BME280;35806;47.958;13.158;2023-02-28T05:03:47;95043.71;;;-5.10;60.80
49915;BME280;35806;47.958;13.158;2023-02-28T05:06:16;95040.01;;;-5.27;62.10
49915;BME280;35806;47.958;13.158;2023-02-28T05:08:43;95038.03;;;-5.79;62.72
49915;BME280;35806;47.958;13.158;2023-02-28T05:11:16;95033.75;;;-5.67;62.98
49915;BME280;35806;47.958;13.158;2023-02-28T05:13:44;95038.22;;;-5.04;61.71
49915;BME280;35806;47.958;13.158;2023-02-28T05:16:11;95041.55;;;-4.61;60.86
49915;BME280;35806;47.958;13.158;2023-02-28T05:18:38;95046.40;;;-5.30;61.75
49915;BME280;35806;47.958;13.158;2023-02-28T05:21:12;95049.24;;;-5.07;61.47
49915;BME280;35806;47.958;13.158;2023-02-28T05:23:48;95048.51;;;-6.01;63.09
49915;BME280;35806;47.958;13.158;2023-02-28T05:26:15;95049.09;;;-5.55;62.94
49915;BME280;35806;47.958;13.158;2023-02-28T05:28:47;95048.99;;;-5.38;62.64
49915;BME280;35806;47.958;13.158;2023-02-28T05:31:15;95052.78;;;-5.43;62.62
49915;BME280;35806;47.958;13.158;2023-02-28T05:33:42;95054.75;;;-5.53;62.54
49915;BME280;35806;47.958;13.158;2023-02-28T05:36:10;95054.25;;;-6.14;62.35
49915;BME280;35806;47.958;13.158;2023-02-28T05:38:37;95057.26;;;-5.06;61.17
49915;BME280;35806;47.958;13.158;2023-02-28T05:41:07;95057.74;;;-5.24;61.54
49915;BME280;35806;47.958;13.158;2023-02-28T05:43:40;95057.91;;;-5.04;61.31
49915;BME280;35806;47.958;13.158;2023-02-28T05:46:27;95057.76;;;-4.71;61.33
49915;BME280;35806;47.958;13.158;2023-02-28T05:48:55;95060.52;;;-5.43;61.97
49915;BME280;35806;47.958;13.158;2023-02-28T05:51:21;95064.40;;;-4.96;60.78
49915;BME280;35806;47.958;13.158;2023-02-28T05:53:49;95063.32;;;-5.69;62.23
49915;BME280;35806;47.958;13.158;2023-02-28T05:56:16;95068.18;;;-5.69;62.83
49915;BME280;35806;47.958;13.158;2023-02-28T05:58:42;95072.31;;;-5.22;61.99
49915;BME280;35806;47.958;13.158;2023-02-28T06:01:33;95068.47;;;-5.65;62.84
49915;BME280;35806;47.958;13.158;2023-02-28T06:04:02;95070.24;;;-5.74;62.66
49915;BME280;35806;47.958;13.158;2023-02-28T06:06:36;95070.30;;;-5.90;63.34
49915;BME280;35806;47.958;13.158;2023-02-28T06:09:04;95075.20;;;-5.58;62.83
49915;BME280;35806;47.958;13.158;2023-02-28T06:11:32;95078.86;;;-5.38;61.60
49915;BME280;35806;47.958;13.158;2023-02-28T06:14:01;95081.93;;;-5.05;61.55
49915;BME280;35806;47.958;13.158;2023-02-28T06:16:29;95085.63;;;-5.73;61.58
49915;BME280;35806;47.958;13.158;2023-02-28T06:18:57;95087.23;;;-5.66;61.99
49915;BME280;35806;47.958;13.158;2023-02-28T06:21:26;95091.63;;;-5.21;61.05
49915;BME280;35806;47.958;13.158;2023-02-28T06:23:54;95091.32;;;-4.39;59.75
49915;BME280;35806;47.958;13.158;2023-02-28T06:26:23;95097.37;;;-4.88;60.30
49915;BME280;35806;47.958;13.158;2023-02-28T06:28:50;95098.90;;;-4.90;60.23
49915;BME280;35806;47.958;13.158;2023-02-28T06:31:18;95098.03;;;-4.29;59.26
49915;BME280;35806;47.958;13.158;2023-02-28T06:33:47;95104.49;;;-4.50;58.79
49915;BME280;35806;47.958;13.158;2023-02-28T06:36:15;95111.75;;;-4.04;58.80
49915;BME280;35806;47.958;13.158;2023-02-28T06:38:43;95111.77;;;-4.57;58.92
49915;BME280;35806;47.958;13.158;2023-02-28T06:41:11;95111.80;;;-4.09;58.50
49915;BME280;35806;47.958;13.158;2023-02-28T06:43:41;95112.88;;;-4.36;58.55
49915;BME280;35806;47.958;13.158;2023-02-28T06:46:12;95114.74;;;-4.26;58.32
49915;BME280;35806;47.958;13.158;2023-02-28T06:48:40;95120.44;;;-4.01;57.60
49915;BME280;35806;47.958;13.158;2023-02-28T06:51:09;95120.97;;;-3.15;55.86
49915;BME280;35806;47.958;13.158;2023-02-28T06:53:37;95123.08;;;-3.36;57.15
49915;BME280;35806;47.958;13.158;2023-02-28T06:56:06;95123.72;;;-3.74;57.11
49915;BME280;35806;47.958;13.158;2023-02-28T06:58:34;95131.68;;;-4.40;58.66
49915;BME280;35806;47.958;13.158;2023-02-28T07:01:02;95130.58;;;-4.03;57.99
49915;BME280;35806;47.958;13.158;2023-02-28T07:03:30;95129.75;;;-4.26;58.81
49915;BME280;35806;47.958;13.158;2023-02-28T07:05:58;95137.25;;;-4.55;58.60
49915;BME280;35806;47.958;13.158;2023-02-28T07:08:25;95130.43;;;-4.70;58.55
49915;BME280;35806;47.958;13.158;2023-02-28T07:10:53;95134.66;;;-4.12;57.54
49915;BME280;35806;47.958;13.158;2023-02-28T07:13:22;95134.51;;;-4.32;57.43
49915;BME280;35806;47.958;13.158;2023-02-28T07:15:54;95134.74;;;-3.87;57.09
49915;BME280;35806;47.958;13.158;2023-02-28T07:18:23;95136.19;;;-4.26;58.07
49915;BME280;35806;47.958;13.158;2023-02-28T07:20:50;95136.49;;;-4.01;57.99
49915;BME280;35806;47.958;13.158;2023-02-28T07:23:23;95139.70;;;-4.42;58.56
49915;BME280;35806;47.958;13.158;2023-02-28T07:25:51;95142.29;;;-4.31;58.41
49915;BME280;35806;47.958;13.158;2023-02-28T07:28:19;95141.90;;;-4.21;57.88
49915;BME280;35806;47.958;13.158;2023-02-28T07:30:46;95139.34;;;-3.67;57.42
49915;BME280;35806;47.958;13.158;2023-02-28T07:33:14;95147.54;;;-4.01;57.34
49915;BME280;35806;47.958;13.158;2023-02-28T07:35:41;95143.38;;;-3.50;56.90
49915;BME280;35806;47.958;13.158;2023-02-28T07:38:09;95147.18;;;-3.94;56.93
49915;BME280;35806;47.958;13.158;2023-02-28T07:40:37;95146.76;;;-4.61;58.21
49915;BME280;35806;47.958;13.158;2023-02-28T07:43:04;95147.35;;;-4.22;58.09
49915;BME280;35806;47.958;13.158;2023-02-28T07:45:32;95152.49;;;-4.57;58.99
49915;BME280;35806;47.958;13.158;2023-02-28T07:48:00;95153.03;;;-4.66;59.01
49915;BME280;35806;47.958;13.158;2023-02-28T07:50:28;95146.30;;;-3.47;56.93
49915;BME280;35806;47.958;13.158;2023-02-28T07:52:55;95144.17;;;-3.79;57.01
49915;BME280;35806;47.958;13.158;2023-02-28T07:55:23;95154.75;;;-4.21;57.48
49915;BME280;35806;47.958;13.158;2023-02-28T07:57:51;95157.20;;;-3.82;57.67
49915;BME280;35806;47.958;13.158;2023-02-28T08:00:18;95157.82;;;-3.84;57.26
49915;BME280;35806;47.958;13.158;2023-02-28T08:02:46;95158.85;;;-3.77;57.16
49915;BME280;35806;47.958;13.158;2023-02-28T08:05:13;95159.45;;;-3.20;55.57
49915;BME280;35806;47.958;13.158;2023-02-28T08:07:40;95155.72;;;-2.88;54.46
49915;BME280;35806;47.958;13.158;2023-02-28T08:10:08;95158.90;;;-2.52;53.85
49915;BME280;35806;47.958;13.158;2023-02-28T08:12:35;95159.38;;;-2.36;52.62
49915;BME280;35806;47.958;13.158;2023-02-28T08:15:04;95154.52;;;-2.30;53.38
49915;BME280;35806;47.958;13.158;2023-02-28T08:17:31;95152.50;;;-1.71;51.47
49915;BME280;35806;47.958;13.158;2023-02-28T08:19:59;95153.07;;;-1.72;51.11
49915;BME280;35806;47.958;13.158;2023-02-28T08:22:27;95155.54;;;-2.48;52.81
49915;BME280;35806;47.958;13.158;2023-02-28T08:24:54;95153.90;;;-2.93;53.84
49915;BME280;35806;47.958;13.158;2023-02-28T08:27:22;95155.91;;;-2.50;52.92
49915;BME280;35806;47.958;13.158;2023-02-28T08:29:49;95158.61;;;-2.57;53.40
49915;BME280;35806;47.958;13.158;2023-02-28T08:32:17;95155.31;;;-2.04;52.90
49915;BME280;35806;47.958;13.158;2023-02-28T08:34:45;95158.63;;;-1.74;51.50
49915;BME280;35806;47.958;13.158;2023-02-28T08:37:12;95160.73;;;-0.78;49.91
49915;BME280;35806;47.958;13.158;2023-02-28T08:39:40;95166.37;;;-1.25;49.07
49915;BME280;35806;47.958;13.158;2023-02-28T08:42:07;95168.51;;;-1.77;50.31
49915;BME280;35806;47.958;13.158;2023-02-28T08:44:35;95168.22;;;-1.87;50.40
49915;BME280;35806;47.958;13.158;2023-02-28T08:47:02;95174.01;;;-2.08;50.70
49915;BME280;35806;47.958;13.158;2023-02-28T08:49:29;95177.03;;;-2.39;52.73
49915;BME280;35806;47.958;13.158;2023-02-28T08:51:57;95178.98;;;-2.25;52.00
49915;BME280;35806;47.958;13.158;2023-02-28T08:54:25;95176.48;;;-1.86;51.22
49915;BME280;35806;47.958;13.158;2023-02-28T08:56:52;95179.15;;;-2.54;51.87
49915;BME280;35806;47.958;13.158;2023-02-28T08:59:19;95179.21;;;-2.32;51.94
49915;BME280;35806;47.958;13.158;2023-02-28T09:01:46;95180.57;;;-1.61;51.14
49915;BME280;35806;47.958;13.158;2023-02-28T09:04:14;95179.13;;;-1.38;50.09
49915;BME280;35806;47.958;13.158;2023-02-28T09:06:42;95180.98;;;-1.64;51.65
49915;BME280;35806;47.958;13.158;2023-02-28T09:09:09;95181.41;;;-1.04;49.36
49915;BME280;35806;47.958;13.158;2023-02-28T09:11:37;95184.45;;;-1.50;48.94
49915;BME280;35806;47.958;13.158;2023-02-28T09:14:04;95190.11;;;-1.06;50.38
49915;BME280;35806;47.958;13.158;2023-02-28T09:16:32;95189.01;;;-0.57;49.30
49915;BME280;35806;47.958;13.158;2023-02-28T09:19:00;95188.29;;;-0.42;48.98
49915;BME280;35806;47.958;13.158;2023-02-28T09:21:28;95191.75;;;-0.49;48.02
49915;BME280;35806;47.958;13.158;2023-02-28T09:23:55;95195.83;;;-0.51;46.50
49915;BME280;35806;47.958;13.158;2023-02-28T09:26:24;95195.91;;;-1.26;49.19
49915;BME280;35806;47.958;13.158;2023-02-28T09:28:53;95196.43;;;-1.13;48.71
49915;BME280;35806;47.958;13.158;2023-02-28T09:31:23;95202.35;;;0.18;48.24
49915;BME280;35806;47.958;13.158;2023-02-28T09:33:52;95207.67;;;0.92;46.58
49915;BME280;35806;47.958;13.158;2023-02-28T09:36:20;95207.11;;;1.27;45.14
49915;BME280;35806;47.958;13.158;2023-02-28T09:38:47;95209.63;;;1.58;42.95
49915;BME280;35806;47.958;13.158;2023-02-28T09:41:20;95204.11;;;1.20;44.22
49915;BME280;35806;47.958;13.158;2023-02-28T09:43:51;95205.97;;;2.25;42.89
49915;BME280;35806;47.958;13.158;2023-02-28T09:46:31;95204.17;;;2.47;42.54
49915;BME280;35806;47.958;13.158;2023-02-28T09:49:02;95210.18;;;2.65;41.06
49915;BME280;35806;47.958;13.158;2023-02-28T09:51:41;95214.49;;;1.40;42.84
49915;BME280;35806;47.958;13.158;2023-02-28T09:54:13;95217.35;;;1.79;44.11
49915;BME280;35806;47.958;13.158;2023-02-28T09:56:41;95223.03;;;1.54;43.38
49915;BME280;35806;47.958;13.158;2023-02-28T09:59:16;95224.88;;;0.97;44.16
49915;BME280;35806;47.958;13.158;2023-02-28T10:01:50;95225.82;;;1.53;43.62
49915;BME280;35806;47.958;13.158;2023-02-28T10:04:35;95228.20;;;0.65;44.47
49915;BME280;35806;47.958;13.158;2023-02-28T10:07:12;95233.37;;;0.36;44.19
49915;BME280;35806;47.958;13.158;2023-02-28T10:09:42;95236.13;;;0.11;46.81
49915;BME280;35806;47.958;13.158;2023-02-28T10:12:13;95236.66;;;1.11;45.39
49915;BME280;35806;47.958;13.158;2023-02-28T10:14:45;95238.46;;;1.11;44.52
49915;BME280;35806;47.958;13.158;2023-02-28T10:17:17;95247.80;;;0.86;44.41
49915;BME280;35806;47.958;13.158;2023-02-28T10:19:53;95247.19;;;-0.23;46.64
49915;BME280;35806;47.958;13.158;2023-02-28T10:22:26;95249.10;;;0.52;46.76
49915;BME280;35806;47.958;13.158;2023-02-28T10:24:56;95246.45;;;0.91;46.27
49915;BME280;35806;47.958;13.158;2023-02-28T10:27:30;95246.30;;;1.14;44.73
49915;BME280;35806;47.958;13.158;2023-02-28T10:29:59;95246.46;;;0.67;45.43
49915;BME280;35806;47.958;13.158;2023-02-28T10:32:30;95245.55;;;0.68;44.62
49915;BME280;35806;47.958;13.158;2023-02-28T10:35:01;95246.74;;;1.02;44.44
49915;BME280;35806;47.958;13.158;2023-02-28T10:37:34;95246.52;;;1.36;44.96
49915;BME280;35806;47.958;13.158;2023-02-28T10:40:05;95245.37;;;1.73;44.27
49915;BME280;35806;47.958;13.158;2023-02-28T10:42:33;95239.05;;;1.97;43.33
49915;BME280;35806;47.958;13.158;2023-02-28T10:45:10;95237.23;;;1.96;43.26
49915;BME280;35806;47.958;13.158;2023-02-28T10:47:49;95238.59;;;1.32;44.73
49915;BME280;35806;47.958;13.158;2023-02-28T10:50:37;95237.44;;;2.22;42.53
49915;BME280;35806;47.958;13.158;2023-02-28T10:53:16;95236.02;;;2.95;41.27
49915;BME280;35806;47.958;13.158;2023-02-28T10:55:56;95234.48;;;2.44;41.47
49915;BME280;35806;47.958;13.158;2023-02-28T10:58:33;95235.24;;;2.17;41.24
49915;BME280;35806;47.958;13.158;2023-02-28T11:01:14;95235.75;;;1.83;43.10
49915;BME280;35806;47.958;13.158;2023-02-28T11:03:42;95241.66;;;1.76;42.79
49915;BME280;35806;47.958;13.158;2023-02-28T11:06:15;95244.89;;;1.03;44.31
49915;BME280;35806;47.958;13.158;2023-02-28T11:08:46;95242.06;;;1.57;44.30
49915;BME280;35806;47.958;13.158;2023-02-28T11:11:16;95234.30;;;1.97;43.06
49915;BME280;35806;47.958;13.158;2023-02-28T11:14:04;95231.52;;;2.81;42.48
49915;BME280;35806;47.958;13.158;2023-02-28T11:16:34;95227.71;;;2.59;43.42
49915;BME280;35806;47.958;13.158;2023-02-28T11:19:03;95227.00;;;2.60;42.43
49915;BME280;35806;47.958;13.158;2023-02-28T11:21:34;95229.61;;;2.41;42.87
49915;BME280;35806;47.958;13.158;2023-02-28T11:24:05;95227.58;;;2.81;42.01
49915;BME280;35806;47.958;13.158;2023-02-28T11:26:41;95225.62;;;2.49;42.85
49915;BME280;35806;47.958;13.158;2023-02-28T11:29:16;95220.49;;;2.92;41.56
49915;BME280;35806;47.958;13.158;2023-02-28T11:31:46;95220.39;;;3.57;41.83
49915;BME280;35806;47.958;13.158;2023-02-28T11:34:27;95225.45;;;3.94;40.31
49915;BME280;35806;47.958;13.158;2023-02-28T11:37:01;95225.89;;;3.99;38.61
49915;BME280;35806;47.958;13.158;2023-02-28T11:39:28;95230.26;;;2.10;41.63
49915;BME280;35806;47.958;13.158;2023-02-28T11:42:06;95227.71;;;2.65;43.71
49915;BME280;35806;47.958;13.158;2023-02-28T11:44:47;95229.59;;;2.04;43.05
49915;BME280;35806;47.958;13.158;2023-02-28T11:47:29;95223.96;;;2.73;41.42
49915;BME280;35806;47.958;13.158;2023-02-28T11:50:14;95223.22;;;2.73;44.39
49915;BME280;35806;47.958;13.158;2023-02-28T11:52:48;95223.03;;;2.96;41.56
49915;BME280;35806;47.958;13.158;2023-02-28T11:55:24;95220.11;;;2.77;41.68
49915;BME280;35806;47.958;13.158;2023-02-28T11:58:11;95215.69;;;2.58;43.77
49915;BME280;35806;47.958;13.158;2023-02-28T12:00:57;95208.87;;;4.35;40.75
49915;BME280;35806;47.958;13.158;2023-02-28T12:03:32;95203.51;;;3.55;40.27
49915;BME280;35806;47.958;13.158;2023-02-28T12:06:13;95203.04;;;3.98;38.90
49915;BME280;35806;47.958;13.158;2023-02-28T12:08:49;95205.45;;;3.72;39.10
49915;BME280;35806;47.958;13.158;2023-02-28T12:11:29;95205.84;;;3.86;39.00
49915;BME280;35806;47.958;13.158;2023-02-28T12:14:14;95202.76;;;3.77;39.35
49915;BME280;35806;47.958;13.158;2023-02-28T12:16:54;95202.70;;;3.05;40.27
49915;BME280;35806;47.958;13.158;2023-02-28T12:19:35;95202.95;;;4.39;39.68
49915;BME280;35806;47.958;13.158;2023-02-28T12:22:19;95200.18;;;3.86;40.22
49915;BME280;35806;47.958;13.158;2023-02-28T12:25:01;95201.31;;;4.75;38.30
49915;BME280;35806;47.958;13.158;2023-02-28T12:27:36;95200.23;;;4.27;39.15
49915;BME280;35806;47.958;13.158;2023-02-28T12:30:12;95201.51;;;3.52;39.48
49915;BME280;35806;47.958;13.158;2023-02-28T12:32:42;95199.92;;;3.61;39.83
49915;BME280;35806;47.958;13.158;2023-02-28T12:35:14;95198.71;;;4.15;40.68
49915;BME280;35806;47.958;13.158;2023-02-28T12:37:47;95199.61;;;4.24;39.75
49915;BME280;35806;47.958;13.158;2023-02-28T12:40:20;95195.09;;;3.89;39.10
49915;BME280;35806;47.958;13.158;2023-02-28T12:42:51;95195.93;;;4.46;40.23
49915;BME280;35806;47.958;13.158;2023-02-28T12:45:22;95189.16;;;3.97;39.90
49915;BME280;35806;47.958;13.158;2023-02-28T12:47:55;95191.08;;;5.10;39.04
49915;BME280;35806;47.958;13.158;2023-02-28T12:50:25;95194.93;;;4.95;37.81
49915;BME280;35806;47.958;13.158;2023-02-28T12:52:58;95193.01;;;4.13;38.67
49915;BME280;35806;47.958;13.158;2023-02-28T12:55:33;95190.63;;;5.14;39.39
49915;BME280;35806;47.958;13.158;2023-02-28T12:58:14;95188.86;;;4.33;39.24
49915;BME280;35806;47.958;13.158;2023-02-28T13:01:03;95190.08;;;4.55;38.37
49915;BME280;35806;47.958;13.158;2023-02-28T13:03:45;95187.18;;;3.26;40.00
49915;BME280;35806;47.958;13.158;2023-02-28T13:06:29;95184.92;;;3.87;39.79
49915;BME280;35806;47.958;13.158;2023-02-28T13:09:05;95180.11;;;3.46;41.10
49915;BME280;35806;47.958;13.158;2023-02-28T13:11:40;95179.67;;;4.84;40.04
49915;BME280;35806;47.958;13.158;2023-02-28T13:14:21;95176.68;;;5.72;38.13
49915;BME280;35806;47.958;13.158;2023-02-28T13:16:55;95184.97;;;4.92;37.20
49915;BME280;35806;47.958;13.158;2023-02-28T13:19:26;95184.89;;;4.34;39.40
49915;BME280;35806;47.958;13.158;2023-02-28T13:21:54;95184.20;;;3.19;40.98
49915;BME280;35806;47.958;13.158;2023-02-28T13:24:49;95182.84;;;3.84;40.70
49915;BME280;35806;47.958;13.158;2023-02-28T13:27:31;95185.73;;;3.23;42.25